createdAt,value
2022-12-26T00:00:19.275Z,42.07
2022-12-26T00:02:45.766Z,39.43
2022-12-26T00:05:12.328Z,36.40
2022-12-26T00:07:38.673Z,39.13
2022-12-26T00:10:05.528Z,39.40
2022-12-26T00:12:31.905Z,31.67
2022-12-26T00:14:58.246Z,39.47
2022-12-26T00:17:24.584Z,33.67
2022-12-26T00:19:50.927Z,33.80
2022-12-26T00:22:18.250Z,34.57
2022-12-26T00:24:44.588Z,36.17
2022-12-26T00:27:10.915Z,37.37
2022-12-26T00:29:37.252Z,30.57
2022-12-26T00:32:03.846Z,26.57
2022-12-26T00:34:30.206Z,24.83
2022-12-26T00:36:56.544Z,24.63
2022-12-26T00:39:22.855Z,36.77
2022-12-26T00:41:49.199Z,27.70
2022-12-26T00:44:15.539Z,28.33
2022-12-26T00:46:42.021Z,25.83
2022-12-26T00:49:08.416Z,24.30
2022-12-26T00:51:34.740Z,26.97
2022-12-26T00:54:01.083Z,27.83
2022-12-26T00:56:27.436Z,22.47
2022-12-26T00:58:53.819Z,20.60
2022-12-26T01:01:22.888Z,26.40
2022-12-26T01:03:50.528Z,20.77
2022-12-26T01:06:17.376Z,23.87
2022-12-26T01:08:44.428Z,23.47
2022-12-26T01:11:13.607Z,22.17
2022-12-26T01:13:39.938Z,25.50
2022-12-26T01:16:07.342Z,26.57
2022-12-26T01:18:34.339Z,23.80
2022-12-26T01:21:10.355Z,24.17
2022-12-26T01:23:36.748Z,25.97
2022-12-26T01:26:16.652Z,23.93
2022-12-26T01:28:47.673Z,25.17
2022-12-26T01:31:14.081Z,24.80
2022-12-26T01:33:40.500Z,21.60
2022-12-26T01:36:06.962Z,25.43
2022-12-26T01:38:33.296Z,25.90
2022-12-26T01:41:29.838Z,23.10
2022-12-26T01:44:02.839Z,28.60
2022-12-26T01:46:39.662Z,27.07
2022-12-26T01:49:15.167Z,29.00
2022-12-26T01:51:46.352Z,25.80
2022-12-26T01:54:38.310Z,27.03
2022-12-26T01:57:04.030Z,25.77
2022-12-26T01:59:35.359Z,22.70
2022-12-26T02:02:01.985Z,25.87
2022-12-26T02:04:59.245Z,26.03
2022-12-26T02:07:26.450Z,23.30
2022-12-26T02:09:53.195Z,27.50
2022-12-26T02:12:40.887Z,22.87
2022-12-26T02:15:13.331Z,26.47
2022-12-26T02:17:41.247Z,24.87
2022-12-26T02:20:20.742Z,25.00
2022-12-26T02:23:01.436Z,25.80
2022-12-26T02:25:30.567Z,24.40
2022-12-26T02:28:32.264Z,20.60
2022-12-26T02:31:21.888Z,18.27
2022-12-26T02:34:01.628Z,23.77
2022-12-26T02:36:50.065Z,24.27
2022-12-26T02:39:43.609Z,25.90
2022-12-26T02:42:38.198Z,23.13
2022-12-26T02:45:43.633Z,25.40
2022-12-26T02:48:13.521Z,26.60
2022-12-26T02:51:36.745Z,27.23
2022-12-26T02:54:27.881Z,29.40
2022-12-26T02:57:24.423Z,28.50
2022-12-26T03:00:24.094Z,26.83
2022-12-26T03:03:17.177Z,26.00
2022-12-26T03:06:11.268Z,26.97
2022-12-26T03:09:03.354Z,31.00
2022-12-26T03:11:58.312Z,24.87
2022-12-26T03:14:33.105Z,24.40
2022-12-26T03:17:21.313Z,28.80
2022-12-26T03:20:17.942Z,20.57
2022-12-26T03:23:18.615Z,21.47
2022-12-26T03:26:09.656Z,21.73
2022-12-26T03:28:36.072Z,27.90
2022-12-26T03:31:07.795Z,28.60
2022-12-26T03:33:57.801Z,28.60
2022-12-26T03:36:35.160Z,26.83
2022-12-26T03:39:48.433Z,34.67
2022-12-26T03:43:01.109Z,32.80
2022-12-26T03:45:58.352Z,28.60
2022-12-26T03:48:53.957Z,27.70
2022-12-26T03:51:49.991Z,30.60
2022-12-26T03:54:43.047Z,32.00
2022-12-26T03:57:36.264Z,37.97
2022-12-26T04:00:28.420Z,31.50
2022-12-26T04:03:19.054Z,38.70
2022-12-26T04:06:08.124Z,34.77
2022-12-26T04:09:09.829Z,31.70
2022-12-26T04:11:57.956Z,27.50
2022-12-26T04:14:55.436Z,35.50
2022-12-26T04:18:15.429Z,27.87
2022-12-26T04:20:47.657Z,27.50
2022-12-26T04:23:44.882Z,28.47
2022-12-26T04:26:39.299Z,30.63
2022-12-26T04:29:24.524Z,36.47
2022-12-26T04:32:29.649Z,33.73
2022-12-26T04:35:36.822Z,27.40
2022-12-26T04:38:24.382Z,32.10
2022-12-26T04:41:16.885Z,29.33
2022-12-26T04:44:03.210Z,28.17
2022-12-26T04:46:31.991Z,27.70
2022-12-26T04:49:18.600Z,30.40
2022-12-26T04:51:44.991Z,26.70
2022-12-26T04:54:11.324Z,29.10
2022-12-26T04:56:37.770Z,26.80
2022-12-26T04:59:04.182Z,30.77
2022-12-26T05:01:49.411Z,24.17
2022-12-26T05:04:36.660Z,23.80
2022-12-26T05:07:24.012Z,30.20
2022-12-26T05:09:53.284Z,32.37
2022-12-26T05:12:20.546Z,30.47
2022-12-26T05:14:46.964Z,31.20
2022-12-26T05:17:32.543Z,30.53
2022-12-26T05:20:34.638Z,27.77
2022-12-26T05:23:21.107Z,33.67
2022-12-26T05:26:07.432Z,24.73
2022-12-26T05:28:43.069Z,25.80
2022-12-26T05:31:15.563Z,25.60
2022-12-26T05:34:01.212Z,23.23
2022-12-26T05:36:34.697Z,24.83
2022-12-26T05:39:01.805Z,24.13
2022-12-26T05:41:28.171Z,19.00
2022-12-26T05:43:54.564Z,17.87
2022-12-26T05:46:20.956Z,22.37
2022-12-26T05:48:47.314Z,21.33
2022-12-26T05:51:13.942Z,21.50
2022-12-26T05:53:40.454Z,24.13
2022-12-26T05:56:12.029Z,19.93
2022-12-26T05:58:39.285Z,25.07
2022-12-26T06:01:05.824Z,23.00
2022-12-26T06:03:32.904Z,27.63
2022-12-26T06:05:59.413Z,16.67
2022-12-26T06:08:25.748Z,17.33
2022-12-26T06:10:52.076Z,23.37
2022-12-26T06:13:18.411Z,17.43
2022-12-26T06:15:44.725Z,21.37
2022-12-26T06:18:11.058Z,17.80
2022-12-26T06:20:40.533Z,16.70
2022-12-26T06:23:07.001Z,19.50
2022-12-26T06:25:33.339Z,22.50
2022-12-26T06:27:59.700Z,16.90
2022-12-26T06:30:26.071Z,19.73
2022-12-26T06:32:52.381Z,18.43
2022-12-26T06:35:18.715Z,20.43
2022-12-26T06:37:45.044Z,18.23
2022-12-26T06:40:11.413Z,20.40
2022-12-26T06:42:37.739Z,15.27
2022-12-26T06:45:04.437Z,17.00
2022-12-26T06:47:30.797Z,21.87
2022-12-26T06:49:57.155Z,18.07
2022-12-26T06:52:23.500Z,12.43
2022-12-26T06:54:49.809Z,18.93
2022-12-26T06:57:16.179Z,16.73
2022-12-26T06:59:42.640Z,15.80
2022-12-26T07:02:11.007Z,15.53
2022-12-26T07:04:37.418Z,19.20
2022-12-26T07:07:03.828Z,24.70
2022-12-26T07:09:33.800Z,15.90
2022-12-26T07:12:01.555Z,18.17
2022-12-26T07:14:27.900Z,12.73
2022-12-26T07:16:54.552Z,16.90
2022-12-26T07:19:20.956Z,21.27
2022-12-26T07:21:47.276Z,16.43
2022-12-26T07:24:19.210Z,19.23
2022-12-26T07:26:46.670Z,15.53
2022-12-26T07:29:13.984Z,16.10
2022-12-26T07:31:41.180Z,12.30
2022-12-26T07:34:08.501Z,17.13
2022-12-26T07:36:34.913Z,15.83
2022-12-26T07:39:01.244Z,14.80
2022-12-26T07:41:47.526Z,17.27
2022-12-26T07:44:13.863Z,14.03
2022-12-26T07:46:40.242Z,19.20
2022-12-26T07:49:07.564Z,22.13
2022-12-26T07:51:34.062Z,18.27
2022-12-26T07:54:03.162Z,21.37
2022-12-26T07:56:34.179Z,14.47
2022-12-26T07:59:00.548Z,14.90
2022-12-26T08:01:28.042Z,18.10
2022-12-26T08:03:54.623Z,16.67
2022-12-26T08:06:21.269Z,16.60
2022-12-26T08:08:51.041Z,12.40
2022-12-26T08:11:21.317Z,15.03
2022-12-26T08:13:47.661Z,13.07
2022-12-26T08:16:15.086Z,14.53
2022-12-26T08:18:42.333Z,16.40
2022-12-26T08:21:09.029Z,12.67
2022-12-26T08:23:35.417Z,12.23
2022-12-26T08:26:09.567Z,12.77
2022-12-26T08:28:36.324Z,12.17
2022-12-26T08:31:09.822Z,14.73
2022-12-26T08:33:36.740Z,11.67
2022-12-26T08:36:08.605Z,11.73
2022-12-26T08:38:35.423Z,12.53
2022-12-26T08:41:02.259Z,11.97
2022-12-26T08:43:53.215Z,14.20
2022-12-26T08:46:16.388Z,13.30
2022-12-26T08:48:42.853Z,15.53
2022-12-26T08:51:15.877Z,14.10
2022-12-26T08:53:42.548Z,18.27
2022-12-26T08:56:13.424Z,13.07
2022-12-26T08:58:39.804Z,16.30
2022-12-26T09:01:12.768Z,10.80
2022-12-26T09:03:40.051Z,12.33
2022-12-26T09:06:06.870Z,10.83
2022-12-26T09:08:34.827Z,20.37
2022-12-26T09:11:06.414Z,12.00
2022-12-26T09:13:33.555Z,11.77
2022-12-26T09:16:08.008Z,16.00
2022-12-26T09:18:35.109Z,14.67
2022-12-26T09:21:06.917Z,9.57
2022-12-26T09:23:35.063Z,11.30
2022-12-26T09:26:06.904Z,9.57
2022-12-26T09:28:34.507Z,14.40
2022-12-26T09:31:10.012Z,10.30
2022-12-26T09:33:37.622Z,10.87
2022-12-26T09:36:14.793Z,10.17
2022-12-26T09:38:42.692Z,11.20
2022-12-26T09:41:30.959Z,8.67
2022-12-26T09:44:25.566Z,16.00
2022-12-26T09:47:25.216Z,13.03
2022-12-26T09:50:18.658Z,11.33
2022-12-26T09:53:05.659Z,14.23
2022-12-26T09:55:42.456Z,7.60
2022-12-26T09:58:27.881Z,9.37
2022-12-26T10:01:05.585Z,9.77
2022-12-26T10:03:38.492Z,11.10
2022-12-26T10:06:15.624Z,10.67
2022-12-26T10:08:52.490Z,13.87
2022-12-26T10:11:55.263Z,12.10
2022-12-26T10:14:35.800Z,8.17
2022-12-26T10:17:11.324Z,16.27
2022-12-26T10:19:48.650Z,12.33
2022-12-26T10:22:31.398Z,9.77
2022-12-26T10:25:01.275Z,11.23
2022-12-26T10:27:31.818Z,15.13
2022-12-26T10:30:03.452Z,13.47
2022-12-26T10:32:38.235Z,8.60
2022-12-26T10:35:23.480Z,11.80
2022-12-26T10:37:52.936Z,9.77
2022-12-26T10:40:26.991Z,12.20
2022-12-26T10:42:59.434Z,12.17
2022-12-26T10:45:37.844Z,10.83
2022-12-26T10:48:04.750Z,9.30
2022-12-26T10:50:33.155Z,10.80
2022-12-26T10:53:01.177Z,9.83
2022-12-26T10:55:35.033Z,12.20
2022-12-26T10:58:13.281Z,11.30
2022-12-26T11:00:39.595Z,10.80
2022-12-26T11:03:07.431Z,9.03
2022-12-26T11:06:06.361Z,10.00
2022-12-26T11:08:43.016Z,8.10
2022-12-26T11:11:14.847Z,6.07
2022-12-26T11:13:52.628Z,7.97
2022-12-26T11:16:31.511Z,4.00
2022-12-26T11:18:58.637Z,5.27
2022-12-26T11:21:28.226Z,6.40
2022-12-26T11:24:06.819Z,6.60
2022-12-26T11:26:33.184Z,4.87
2022-12-26T11:29:14.969Z,5.50
2022-12-26T11:31:43.840Z,6.23
2022-12-26T11:34:17.194Z,4.33
2022-12-26T11:36:50.812Z,5.10
2022-12-26T11:39:30.387Z,4.47
2022-12-26T11:41:57.640Z,3.30
2022-12-26T11:44:28.520Z,2.80
2022-12-26T11:47:16.388Z,6.10
2022-12-26T11:49:49.464Z,4.80
2022-12-26T11:52:38.554Z,4.70
2022-12-26T11:55:23.319Z,3.57
2022-12-26T11:58:02.086Z,3.00
2022-12-26T12:00:29.673Z,2.70
2022-12-26T12:02:56.043Z,2.60
2022-12-26T12:05:28.226Z,1.83
2022-12-26T12:08:16.449Z,2.20
2022-12-26T12:11:17.249Z,3.70
2022-12-26T12:13:57.795Z,5.30
2022-12-26T12:16:58.115Z,4.03
2022-12-26T12:19:33.282Z,2.63
2022-12-26T12:22:37.339Z,2.23
2022-12-26T12:25:35.580Z,2.17
2022-12-26T12:28:17.517Z,2.80
2022-12-26T12:30:56.896Z,2.13
2022-12-26T12:33:46.146Z,2.10
2022-12-26T12:36:18.581Z,6.93
2022-12-26T12:39:10.658Z,1.80
2022-12-26T12:41:48.855Z,5.53
2022-12-26T12:44:30.200Z,2.50
2022-12-26T12:47:20.670Z,1.57
2022-12-26T12:49:52.914Z,3.57
2022-12-26T12:52:41.905Z,2.27
2022-12-26T12:55:20.242Z,5.60
2022-12-26T12:57:50.996Z,1.40
2022-12-26T13:00:21.716Z,1.90
2022-12-26T13:03:11.050Z,2.43
2022-12-26T13:05:57.683Z,1.50
2022-12-26T13:08:46.968Z,1.73
2022-12-26T13:11:45.680Z,3.73
2022-12-26T13:14:22.068Z,2.23
2022-12-26T13:16:55.181Z,3.00
2022-12-26T13:19:28.823Z,2.40
2022-12-26T13:22:02.200Z,1.57
2022-12-26T13:24:48.752Z,4.50
2022-12-26T13:27:21.349Z,2.40
2022-12-26T13:29:48.847Z,1.57
2022-12-26T13:32:17.396Z,1.57
2022-12-26T13:34:45.819Z,1.03
2022-12-26T13:37:39.308Z,1.97
2022-12-26T13:40:21.494Z,1.10
2022-12-26T13:43:30.427Z,1.47
2022-12-26T13:45:57.821Z,2.60
2022-12-26T13:48:27.222Z,1.20
2022-12-26T13:50:56.690Z,6.80
2022-12-26T13:53:26.176Z,3.53
2022-12-26T13:56:02.684Z,3.40
2022-12-26T13:58:31.810Z,1.90
2022-12-26T14:01:25.838Z,1.90
2022-12-26T14:04:26.383Z,3.40
2022-12-26T14:07:24.054Z,1.87
2022-12-26T14:10:16.886Z,1.70
2022-12-26T14:13:07.744Z,3.53
2022-12-26T14:15:55.423Z,4.40
2022-12-26T14:18:46.520Z,2.80
2022-12-26T14:21:29.823Z,4.53
2022-12-26T14:24:26.922Z,2.60
2022-12-26T14:27:27.351Z,3.87
2022-12-26T14:30:06.782Z,2.90
2022-12-26T14:32:43.260Z,2.20
2022-12-26T14:35:34.153Z,3.13
2022-12-26T14:38:06.349Z,3.47
2022-12-26T14:40:36.172Z,2.10
2022-12-26T14:43:10.440Z,3.80
2022-12-26T14:45:36.766Z,1.83
2022-12-26T14:48:15.045Z,7.13
2022-12-26T14:50:49.337Z,3.10
2022-12-26T14:53:24.943Z,2.60
2022-12-26T14:55:54.040Z,1.90
2022-12-26T14:58:52.167Z,2.70
2022-12-26T15:01:21.634Z,2.33
2022-12-26T15:03:58.817Z,4.87
2022-12-26T15:06:25.083Z,2.20
2022-12-26T15:09:24.457Z,3.30
2022-12-26T15:12:04.643Z,2.40
2022-12-26T15:14:55.149Z,4.33
2022-12-26T15:17:33.738Z,3.70
2022-12-26T15:20:42.290Z,2.70
2022-12-26T15:23:26.884Z,3.27
2022-12-26T15:26:11.979Z,1.97
2022-12-26T15:29:22.635Z,4.37
2022-12-26T15:32:09.621Z,5.47
2022-12-26T15:35:03.659Z,3.37
2022-12-26T15:37:51.784Z,1.57
2022-12-26T15:40:28.613Z,2.90
2022-12-26T15:43:31.168Z,2.63
2022-12-26T15:46:05.582Z,2.23
2022-12-26T15:48:50.499Z,3.50
2022-12-26T15:51:28.981Z,2.40
2022-12-26T15:54:22.752Z,3.97
2022-12-26T15:57:15.960Z,2.27
2022-12-26T15:59:57.570Z,1.90
2022-12-26T16:02:27.025Z,3.20
2022-12-26T16:05:01.171Z,5.20
2022-12-26T16:07:49.345Z,3.73
2022-12-26T16:10:28.221Z,3.10
2022-12-26T16:13:22.501Z,3.27
2022-12-26T16:15:56.810Z,4.10
2022-12-26T16:18:29.102Z,2.40
2022-12-26T16:21:17.348Z,5.83
2022-12-26T16:23:45.578Z,5.73
2022-12-26T16:26:29.049Z,3.70
2022-12-26T16:28:57.493Z,4.30
2022-12-26T16:31:26.391Z,2.30
2022-12-26T16:33:56.987Z,3.57
2022-12-26T16:36:26.854Z,3.17
2022-12-26T16:38:54.085Z,2.83
2022-12-26T16:41:27.898Z,5.20
2022-12-26T16:43:56.131Z,8.40
2022-12-26T16:46:28.714Z,2.73
2022-12-26T16:49:01.124Z,4.43
2022-12-26T16:51:54.795Z,6.00
2022-12-26T16:54:21.107Z,4.80
2022-12-26T16:56:57.227Z,7.97
2022-12-26T16:59:28.748Z,3.27
2022-12-26T17:01:57.991Z,6.17
2022-12-26T17:04:27.182Z,4.63
2022-12-26T17:06:57.521Z,6.90
2022-12-26T17:09:26.615Z,6.00
2022-12-26T17:11:58.959Z,5.70
2022-12-26T17:14:31.032Z,7.10
2022-12-26T17:17:03.835Z,6.67
2022-12-26T17:19:35.963Z,9.57
2022-12-26T17:22:20.688Z,5.57
2022-12-26T17:24:51.606Z,5.13
2022-12-26T17:27:24.881Z,5.07
2022-12-26T17:30:00.452Z,4.77
2022-12-26T17:32:36.390Z,4.63
2022-12-26T17:35:06.518Z,5.17
2022-12-26T17:37:33.792Z,5.90
2022-12-26T17:40:19.693Z,5.87
2022-12-26T17:42:52.790Z,8.23
2022-12-26T17:45:25.229Z,4.10
2022-12-26T17:47:53.751Z,3.43
2022-12-26T17:50:21.654Z,3.53
2022-12-26T17:52:48.413Z,5.43
2022-12-26T17:55:20.956Z,4.83
2022-12-26T17:57:48.679Z,3.70
2022-12-26T18:00:18.362Z,2.60
2022-12-26T18:02:44.863Z,8.00
2022-12-26T18:05:11.779Z,4.80
2022-12-26T18:07:38.199Z,3.40
2022-12-26T18:10:05.134Z,3.73
2022-12-26T18:12:31.456Z,2.97
2022-12-26T18:15:02.205Z,4.67
2022-12-26T18:17:31.909Z,2.70
2022-12-26T18:19:58.885Z,4.20
2022-12-26T18:22:25.272Z,3.40
2022-12-26T18:24:51.673Z,3.60
2022-12-26T18:27:27.235Z,5.77
2022-12-26T18:29:53.622Z,2.30
2022-12-26T18:32:24.560Z,14.70
2022-12-26T18:34:51.646Z,3.20
2022-12-26T18:37:18.688Z,4.23
2022-12-26T18:39:45.293Z,2.40
2022-12-26T18:42:13.783Z,3.70
2022-12-26T18:44:41.023Z,1.73
2022-12-26T18:47:09.469Z,2.60
2022-12-26T18:49:35.812Z,2.60
2022-12-26T18:52:02.188Z,1.67
2022-12-26T18:54:28.519Z,2.03
2022-12-26T18:56:54.898Z,2.67
2022-12-26T18:59:21.248Z,2.30
2022-12-26T19:01:47.727Z,1.63
2022-12-26T19:04:17.540Z,2.07
2022-12-26T19:06:43.885Z,1.10
2022-12-26T19:09:14.229Z,3.60
2022-12-26T19:11:42.066Z,1.80
2022-12-26T19:14:16.186Z,2.50
2022-12-26T19:16:42.679Z,4.70
2022-12-26T19:19:09.171Z,5.67
2022-12-26T19:21:35.549Z,7.63
2022-12-26T19:24:01.943Z,2.87
2022-12-26T19:26:28.368Z,3.90
2022-12-26T19:28:55.822Z,3.10
2022-12-26T19:31:23.670Z,1.43
2022-12-26T19:33:50.123Z,1.90
2022-12-26T19:36:17.347Z,2.80
2022-12-26T19:38:43.810Z,4.07
2022-12-26T19:41:12.796Z,3.50
2022-12-26T19:43:40.117Z,3.23
2022-12-26T19:46:11.184Z,3.33
2022-12-26T19:48:38.719Z,2.43
2022-12-26T19:51:08.333Z,4.70
2022-12-26T19:53:36.181Z,7.93
2022-12-26T19:56:10.900Z,1.60
2022-12-26T19:58:37.920Z,3.83
2022-12-26T20:01:16.285Z,2.00
2022-12-26T20:03:44.417Z,5.43
2022-12-26T20:06:14.984Z,3.00
2022-12-26T20:08:42.556Z,5.90
2022-12-26T20:11:14.883Z,6.13
2022-12-26T20:13:42.988Z,1.57
2022-12-26T20:16:45.995Z,1.57
2022-12-26T20:19:01.156Z,2.73
2022-12-26T20:21:27.816Z,1.97
2022-12-26T20:23:54.179Z,1.57
2022-12-26T20:26:23.239Z,3.77
2022-12-26T20:28:50.681Z,1.70
2022-12-26T20:31:21.119Z,1.83
2022-12-26T20:33:49.441Z,1.47
2022-12-26T20:36:19.919Z,2.03
2022-12-26T20:38:46.548Z,1.47
2022-12-26T20:41:13.215Z,2.07
2022-12-26T20:43:40.521Z,2.20
2022-12-26T20:46:16.933Z,2.03
2022-12-26T20:48:44.127Z,1.27
2022-12-26T20:51:13.795Z,3.70
2022-12-26T20:53:41.361Z,5.00
2022-12-26T20:56:08.309Z,4.30
2022-12-26T20:58:35.614Z,2.07
2022-12-26T21:01:07.249Z,2.50
2022-12-26T21:03:35.123Z,2.37
2022-12-26T21:06:13.225Z,2.27
2022-12-26T21:08:41.481Z,3.93
2022-12-26T21:11:16.253Z,2.23
2022-12-26T21:13:44.365Z,2.30
2022-12-26T21:16:16.159Z,2.30
2022-12-26T21:18:42.546Z,3.43
2022-12-26T21:21:15.228Z,4.77
2022-12-26T21:23:42.069Z,2.10
2022-12-26T21:26:09.338Z,2.47
2022-12-26T21:28:36.365Z,1.20
2022-12-26T21:31:03.424Z,2.70
2022-12-26T21:33:30.837Z,2.10
2022-12-26T21:35:57.297Z,1.03
2022-12-26T21:38:27.294Z,2.93
2022-12-26T21:40:53.621Z,1.30
2022-12-26T21:43:19.957Z,1.37
2022-12-26T21:45:46.287Z,2.20
2022-12-26T21:48:12.624Z,4.63
2022-12-26T21:50:44.013Z,1.83
2022-12-26T21:53:10.874Z,4.00
2022-12-26T21:55:38.561Z,1.90
2022-12-26T21:58:07.351Z,1.73
2022-12-26T22:00:35.260Z,1.30
2022-12-26T22:03:21.548Z,1.13
2022-12-26T22:05:48.222Z,6.17
2022-12-26T22:08:15.077Z,4.13
2022-12-26T22:11:04.993Z,1.20
2022-12-26T22:13:39.544Z,1.83
2022-12-26T22:16:08.522Z,3.50
2022-12-26T22:18:43.247Z,5.30
2022-12-26T22:21:13.571Z,1.87
2022-12-26T22:23:40.764Z,6.10
2022-12-26T22:26:08.493Z,2.03
2022-12-26T22:28:34.921Z,4.03
2022-12-26T22:31:01.626Z,2.17
2022-12-26T22:33:28.844Z,1.53
2022-12-26T22:35:55.777Z,1.40
2022-12-26T22:38:22.272Z,2.37
2022-12-26T22:40:59.299Z,2.33
2022-12-26T22:43:26.568Z,2.80
2022-12-26T22:45:53.513Z,1.97
2022-12-26T22:48:20.313Z,1.93
2022-12-26T22:50:50.689Z,2.10
2022-12-26T22:53:17.039Z,5.00
2022-12-26T22:55:57.582Z,1.30
2022-12-26T22:58:24.016Z,1.43
2022-12-26T23:00:50.383Z,2.10
2022-12-26T23:03:16.859Z,3.20
2022-12-26T23:05:43.774Z,2.17
2022-12-26T23:08:17.266Z,1.70
2022-12-26T23:10:44.401Z,3.43
2022-12-26T23:13:12.590Z,1.93
2022-12-26T23:15:50.062Z,3.30
2022-12-26T23:18:51.140Z,3.60
2022-12-26T23:21:43.715Z,4.43
2022-12-26T23:24:18.128Z,3.50
2022-12-26T23:27:20.833Z,2.57
2022-12-26T23:30:06.658Z,4.23
2022-12-26T23:32:34.345Z,2.97
2022-12-26T23:35:00.921Z,1.60
2022-12-26T23:37:27.252Z,1.60
2022-12-26T23:39:53.583Z,2.20
2022-12-26T23:42:19.908Z,2.57
2022-12-26T23:44:46.283Z,3.67
2022-12-26T23:47:12.624Z,1.83
2022-12-26T23:49:39.059Z,3.00
2022-12-26T23:52:05.467Z,3.47
2022-12-26T23:54:31.824Z,2.57
2022-12-26T23:56:58.520Z,3.83
2022-12-26T23:59:24.995Z,1.50
